Georgetown, Delaware
Current Conditions -  °F | °C
As of 5:54 AM on Sunday 23 Nov 2014 (Local Time) from KGED Reporting Station
Clear Clear  
Wind Chill: 36°   Ceiling: Unl
Heat Index: 36°   Visibility: 10mi
Dew Point: 26°   Wind: 3mph
Humidity: 67%   Direction: 180°S
Pressure: 30.24"   Gusts: NA
Location:  38.69°N, 75.39°W
Report Text: KGED 231054Z AUTO 18003KT 10SM CLR 02/M03 A3024 RMK AO2 SLP240 T00221033
Loading
Personal Weather Stations






























Interactive Weather Map New forecast layout! Learn more

10-Day Weather Forecast

Advertisements
Track Severe Weather on mobile